sensor_id;sensor_type;location;lat;lon;timestamp;temperature;humidity
47845;DHT22;33605;48.822;8.796;2022-11-03T00:01:06;10.60;49.60
47845;DHT22;33605;48.822;8.796;2022-11-03T00:03:32;10.60;50.10
47845;DHT22;33605;48.822;8.796;2022-11-03T00:05:58;10.60;50.30
47845;DHT22;33605;48.822;8.796;2022-11-03T00:08:34;10.60;50.30
47845;DHT22;33605;48.822;8.796;2022-11-03T00:11:11;10.70;50.40
47845;DHT22;33605;48.822;8.796;2022-11-03T00:13:38;10.70;50.70
47845;DHT22;33605;48.822;8.796;2022-11-03T00:16:05;10.70;50.70
47845;DHT22;33605;48.822;8.796;2022-11-03T00:18:31;10.70;50.90
47845;DHT22;33605;48.822;8.796;2022-11-03T00:21:06;10.70;50.80
47845;DHT22;33605;48.822;8.796;2022-11-03T00:23:34;10.80;50.90
47845;DHT22;33605;48.822;8.796;2022-11-03T00:26:05;10.80;50.70
47845;DHT22;33605;48.822;8.796;2022-11-03T00:28:32;10.80;50.80
47845;DHT22;33605;48.822;8.796;2022-11-03T00:30:59;10.80;50.60
47845;DHT22;33605;48.822;8.796;2022-11-03T00:33:32;10.80;50.60
47845;DHT22;33605;48.822;8.796;2022-11-03T00:35:58;10.90;50.90
47845;DHT22;33605;48.822;8.796;2022-11-03T00:38:25;10.90;51.10
47845;DHT22;33605;48.822;8.796;2022-11-03T00:40:59;10.90;51.00
47845;DHT22;33605;48.822;8.796;2022-11-03T00:43:27;10.90;50.90
47845;DHT22;33605;48.822;8.796;2022-11-03T00:45:53;10.80;50.70
47845;DHT22;33605;48.822;8.796;2022-11-03T00:48:19;10.80;50.70
47845;DHT22;33605;48.822;8.796;2022-11-03T00:56:06;10.80;50.40
47845;DHT22;33605;48.822;8.796;2022-11-03T00:58:32;10.70;50.30
47845;DHT22;33605;48.822;8.796;2022-11-03T01:01:10;10.70;50.20
47845;DHT22;33605;48.822;8.796;2022-11-03T01:03:37;10.70;50.20
47845;DHT22;33605;48.822;8.796;2022-11-03T01:06:07;10.70;50.10
47845;DHT22;33605;48.822;8.796;2022-11-03T01:08:53;10.60;50.10
47845;DHT22;33605;48.822;8.796;2022-11-03T01:11:21;10.60;50.10
47845;DHT22;33605;48.822;8.796;2022-11-03T01:14:07;10.60;50.40
47845;DHT22;33605;48.822;8.796;2022-11-03T01:16:32;10.60;50.40
47845;DHT22;33605;48.822;8.796;2022-11-03T01:18:58;10.60;50.50
47845;DHT22;33605;48.822;8.796;2022-11-03T01:21:24;10.50;50.50
47845;DHT22;33605;48.822;8.796;2022-11-03T01:23:50;10.50;50.70
47845;DHT22;33605;48.822;8.796;2022-11-03T01:26:16;10.50;50.70
47845;DHT22;33605;48.822;8.796;2022-11-03T01:28:43;10.50;50.70
47845;DHT22;33605;48.822;8.796;2022-11-03T01:31:13;10.50;50.80
47845;DHT22;33605;48.822;8.796;2022-11-03T01:33:39;10.50;50.90
47845;DHT22;33605;48.822;8.796;2022-11-03T01:36:06;10.50;50.80
47845;DHT22;33605;48.822;8.796;2022-11-03T01:38:33;10.40;51.10
47845;DHT22;33605;48.822;8.796;2022-11-03T01:41:00;10.40;51.30
47845;DHT22;33605;48.822;8.796;2022-11-03T01:43:26;10.40;51.40
47845;DHT22;33605;48.822;8.796;2022-11-03T01:46:21;10.40;51.40
47845;DHT22;33605;48.822;8.796;2022-11-03T01:52:02;10.40;51.80
47845;DHT22;33605;48.822;8.796;2022-11-03T01:54:30;10.40;51.80
47845;DHT22;33605;48.822;8.796;2022-11-03T01:56:57;10.30;51.80
47845;DHT22;33605;48.822;8.796;2022-11-03T01:59:24;10.30;51.80
47845;DHT22;33605;48.822;8.796;2022-11-03T02:01:51;10.30;51.90
47845;DHT22;33605;48.822;8.796;2022-11-03T02:04:21;10.30;52.10
47845;DHT22;33605;48.822;8.796;2022-11-03T02:06:54;10.30;52.30
47845;DHT22;33605;48.822;8.796;2022-11-03T02:09:23;10.30;52.30
47845;DHT22;33605;48.822;8.796;2022-11-03T02:11:50;10.30;52.30
47845;DHT22;33605;48.822;8.796;2022-11-03T02:14:34;10.30;52.30
47845;DHT22;33605;48.822;8.796;2022-11-03T02:17:02;10.30;52.30
47845;DHT22;33605;48.822;8.796;2022-11-03T02:22:24;10.30;52.50
47845;DHT22;33605;48.822;8.796;2022-11-03T02:27:23;10.30;51.90
47845;DHT22;33605;48.822;8.796;2022-11-03T02:29:48;10.20;51.80
47845;DHT22;33605;48.822;8.796;2022-11-03T02:32:20;10.20;51.90
47845;DHT22;33605;48.822;8.796;2022-11-03T02:34:53;10.20;52.10
47845;DHT22;33605;48.822;8.796;2022-11-03T02:37:26;10.20;52.20
47845;DHT22;33605;48.822;8.796;2022-11-03T02:40:10;10.30;52.20
47845;DHT22;33605;48.822;8.796;2022-11-03T02:42:40;10.20;52.00
47845;DHT22;33605;48.822;8.796;2022-11-03T02:45:09;10.30;51.90
47845;DHT22;33605;48.822;8.796;2022-11-03T02:47:36;10.20;51.70
47845;DHT22;33605;48.822;8.796;2022-11-03T02:50:06;10.30;51.80
47845;DHT22;33605;48.822;8.796;2022-11-03T02:52:43;10.30;52.00
47845;DHT22;33605;48.822;8.796;2022-11-03T03:01:18;10.30;52.10
47845;DHT22;33605;48.822;8.796;2022-11-03T03:03:58;10.30;52.00
47845;DHT22;33605;48.822;8.796;2022-11-03T03:06:31;10.20;51.90
47845;DHT22;33605;48.822;8.796;2022-11-03T03:09:03;10.30;52.10
47845;DHT22;33605;48.822;8.796;2022-11-03T03:11:30;10.30;52.70
47845;DHT22;33605;48.822;8.796;2022-11-03T03:14:08;10.30;53.40
47845;DHT22;33605;48.822;8.796;2022-11-03T03:16:46;10.30;54.20
47845;DHT22;33605;48.822;8.796;2022-11-03T03:19:18;10.30;54.50
47845;DHT22;33605;48.822;8.796;2022-11-03T03:21:47;10.30;54.60
47845;DHT22;33605;48.822;8.796;2022-11-03T03:24:34;10.30;54.80
47845;DHT22;33605;48.822;8.796;2022-11-03T03:27:01;10.30;55.10
47845;DHT22;33605;48.822;8.796;2022-11-03T03:29:33;10.40;55.10
47845;DHT22;33605;48.822;8.796;2022-11-03T03:32:05;10.40;55.90
47845;DHT22;33605;48.822;8.796;2022-11-03T03:34:31;10.40;55.60
47845;DHT22;33605;48.822;8.796;2022-11-03T03:36:58;10.40;55.60
47845;DHT22;33605;48.822;8.796;2022-11-03T03:39:29;10.40;55.50
47845;DHT22;33605;48.822;8.796;2022-11-03T03:41:56;10.40;55.50
47845;DHT22;33605;48.822;8.796;2022-11-03T03:44:23;10.40;55.30
47845;DHT22;33605;48.822;8.796;2022-11-03T03:49:59;10.40;55.00
47845;DHT22;33605;48.822;8.796;2022-11-03T03:52:26;10.50;54.80
47845;DHT22;33605;48.822;8.796;2022-11-03T03:54:52;10.50;54.80
47845;DHT22;33605;48.822;8.796;2022-11-03T03:57:21;10.40;54.70
47845;DHT22;33605;48.822;8.796;2022-11-03T03:59:47;10.40;54.50
47845;DHT22;33605;48.822;8.796;2022-11-03T04:02:13;10.50;54.40
47845;DHT22;33605;48.822;8.796;2022-11-03T04:04:39;10.50;54.30
47845;DHT22;33605;48.822;8.796;2022-11-03T04:07:05;10.40;54.20
47845;DHT22;33605;48.822;8.796;2022-11-03T04:09:49;10.40;54.00
47845;DHT22;33605;48.822;8.796;2022-11-03T04:12:15;10.40;54.00
47845;DHT22;33605;48.822;8.796;2022-11-03T04:14:59;10.40;54.00
47845;DHT22;33605;48.822;8.796;2022-11-03T04:17:45;10.40;54.00
47845;DHT22;33605;48.822;8.796;2022-11-03T04:20:30;10.40;54.10
47845;DHT22;33605;48.822;8.796;2022-11-03T04:23:15;10.40;54.10
47845;DHT22;33605;48.822;8.796;2022-11-03T04:25:43;10.40;54.20
47845;DHT22;33605;48.822;8.796;2022-11-03T04:28:13;10.40;54.40
47845;DHT22;33605;48.822;8.796;2022-11-03T04:30:38;10.30;54.30
47845;DHT22;33605;48.822;8.796;2022-11-03T04:33:15;10.30;54.40
47845;DHT22;33605;48.822;8.796;2022-11-03T04:35:42;10.30;54.60
47845;DHT22;33605;48.822;8.796;2022-11-03T04:40:52;10.30;54.60
47845;DHT22;33605;48.822;8.796;2022-11-03T04:43:20;10.30;54.60
47845;DHT22;33605;48.822;8.796;2022-11-03T04:45:48;10.30;54.30
47845;DHT22;33605;48.822;8.796;2022-11-03T04:48:18;10.30;54.00
47845;DHT22;33605;48.822;8.796;2022-11-03T04:50:46;10.30;53.80
47845;DHT22;33605;48.822;8.796;2022-11-03T04:53:14;10.20;53.50
47845;DHT22;33605;48.822;8.796;2022-11-03T04:55:40;10.20;53.40
47845;DHT22;33605;48.822;8.796;2022-11-03T04:58:20;10.20;53.30
47845;DHT22;33605;48.822;8.796;2022-11-03T05:00:52;10.20;53.00
47845;DHT22;33605;48.822;8.796;2022-11-03T05:03:35;10.10;52.60
47845;DHT22;33605;48.822;8.796;2022-11-03T05:06:13;10.10;52.30
47845;DHT22;33605;48.822;8.796;2022-11-03T05:08:40;10.00;52.20
47845;DHT22;33605;48.822;8.796;2022-11-03T05:11:34;10.00;52.20
47845;DHT22;33605;48.822;8.796;2022-11-03T05:14:23;9.90;53.30
47845;DHT22;33605;48.822;8.796;2022-11-03T05:16:49;9.90;53.20
47845;DHT22;33605;48.822;8.796;2022-11-03T05:19:42;9.80;53.00
47845;DHT22;33605;48.822;8.796;2022-11-03T05:22:15;9.80;53.70
47845;DHT22;33605;48.822;8.796;2022-11-03T05:24:43;9.70;53.00
47845;DHT22;33605;48.822;8.796;2022-11-03T05:27:16;9.70;52.80
47845;DHT22;33605;48.822;8.796;2022-11-03T05:29:43;9.60;52.80
47845;DHT22;33605;48.822;8.796;2022-11-03T05:32:18;9.60;52.80
47845;DHT22;33605;48.822;8.796;2022-11-03T05:34:47;9.50;52.80
47845;DHT22;33605;48.822;8.796;2022-11-03T05:37:32;9.50;52.80
47845;DHT22;33605;48.822;8.796;2022-11-03T05:40:00;9.40;52.80
47845;DHT22;33605;48.822;8.796;2022-11-03T05:42:33;9.40;52.80
47845;DHT22;33605;48.822;8.796;2022-11-03T05:45:01;9.40;53.10
47845;DHT22;33605;48.822;8.796;2022-11-03T05:47:32;9.30;53.10
47845;DHT22;33605;48.822;8.796;2022-11-03T05:50:08;9.30;53.20
47845;DHT22;33605;48.822;8.796;2022-11-03T05:52:36;9.30;53.30
47845;DHT22;33605;48.822;8.796;2022-11-03T05:55:02;9.20;53.30
47845;DHT22;33605;48.822;8.796;2022-11-03T05:57:29;9.20;53.40
47845;DHT22;33605;48.822;8.796;2022-11-03T05:59:55;9.20;53.50
47845;DHT22;33605;48.822;8.796;2022-11-03T06:02:32;9.20;53.60
47845;DHT22;33605;48.822;8.796;2022-11-03T06:05:00;9.20;53.60
47845;DHT22;33605;48.822;8.796;2022-11-03T06:07:29;9.10;53.60
47845;DHT22;33605;48.822;8.796;2022-11-03T06:09:55;9.10;53.60
47845;DHT22;33605;48.822;8.796;2022-11-03T06:12:22;9.10;53.50
47845;DHT22;33605;48.822;8.796;2022-11-03T06:14:48;9.10;53.40
47845;DHT22;33605;48.822;8.796;2022-11-03T06:17:25;9.10;53.50
47845;DHT22;33605;48.822;8.796;2022-11-03T06:19:59;9.00;53.60
47845;DHT22;33605;48.822;8.796;2022-11-03T06:22:25;9.00;53.70
47845;DHT22;33605;48.822;8.796;2022-11-03T06:25:40;9.00;53.70
47845;DHT22;33605;48.822;8.796;2022-11-03T06:27:41;8.90;53.70
47845;DHT22;33605;48.822;8.796;2022-11-03T06:30:39;8.90;53.70
47845;DHT22;33605;48.822;8.796;2022-11-03T06:33:13;8.90;54.50
47845;DHT22;33605;48.822;8.796;2022-11-03T06:35:40;8.90;54.50
47845;DHT22;33605;48.822;8.796;2022-11-03T06:38:18;8.90;54.70
47845;DHT22;33605;48.822;8.796;2022-11-03T06:40:50;9.00;55.20
47845;DHT22;33605;48.822;8.796;2022-11-03T06:46:01;9.00;55.40
47845;DHT22;33605;48.822;8.796;2022-11-03T06:48:33;9.10;55.60
47845;DHT22;33605;48.822;8.796;2022-11-03T06:50:59;9.10;55.60
47845;DHT22;33605;48.822;8.796;2022-11-03T06:53:31;9.20;55.70
47845;DHT22;33605;48.822;8.796;2022-11-03T06:55:58;9.20;55.60
47845;DHT22;33605;48.822;8.796;2022-11-03T06:58:33;9.30;55.60
47845;DHT22;33605;48.822;8.796;2022-11-03T07:01:02;9.40;55.60
47845;DHT22;33605;48.822;8.796;2022-11-03T07:03:34;9.50;55.60
47845;DHT22;33605;48.822;8.796;2022-11-03T07:08:57;9.70;55.70
47845;DHT22;33605;48.822;8.796;2022-11-03T07:11:39;9.70;55.30
47845;DHT22;33605;48.822;8.796;2022-11-03T07:14:21;9.80;55.20
47845;DHT22;33605;48.822;8.796;2022-11-03T07:16:52;9.80;55.60
47845;DHT22;33605;48.822;8.796;2022-11-03T07:19:37;9.90;55.00
47845;DHT22;33605;48.822;8.796;2022-11-03T07:22:14;9.90;55.10
47845;DHT22;33605;48.822;8.796;2022-11-03T07:24:43;9.90;55.10
47845;DHT22;33605;48.822;8.796;2022-11-03T07:27:28;10.00;54.00
47845;DHT22;33605;48.822;8.796;2022-11-03T07:30:05;10.00;54.20
47845;DHT22;33605;48.822;8.796;2022-11-03T07:32:35;10.10;54.30
47845;DHT22;33605;48.822;8.796;2022-11-03T07:37:38;10.20;54.50
47845;DHT22;33605;48.822;8.796;2022-11-03T07:40:10;10.20;54.40
47845;DHT22;33605;48.822;8.796;2022-11-03T07:42:36;10.30;54.60
47845;DHT22;33605;48.822;8.796;2022-11-03T07:45:32;10.40;54.70
47845;DHT22;33605;48.822;8.796;2022-11-03T07:50:35;10.40;54.80
47845;DHT22;33605;48.822;8.796;2022-11-03T07:53:00;10.50;55.00
47845;DHT22;33605;48.822;8.796;2022-11-03T07:55:26;10.60;55.30
47845;DHT22;33605;48.822;8.796;2022-11-03T07:57:51;10.60;55.40
47845;DHT22;33605;48.822;8.796;2022-11-03T08:00:17;10.70;55.60
47845;DHT22;33605;48.822;8.796;2022-11-03T08:02:59;10.70;55.70
47845;DHT22;33605;48.822;8.796;2022-11-03T08:05:25;10.80;56.00
47845;DHT22;33605;48.822;8.796;2022-11-03T08:07:51;10.90;56.00
47845;DHT22;33605;48.822;8.796;2022-11-03T08:10:16;11.00;56.50
47845;DHT22;33605;48.822;8.796;2022-11-03T08:12:42;11.10;56.80
47845;DHT22;33605;48.822;8.796;2022-11-03T08:15:08;11.20;57.20
47845;DHT22;33605;48.822;8.796;2022-11-03T08:17:33;11.30;57.50
